Date,TemperatureHighF,TemperatureAvgF,TemperatureLowF,DewpointHighF,DewpointAvgF,DewpointLowF,HumidityHigh,HumidityAvg,HumidityLow,PressureMaxIn,PressureMinIn,WindSpeedMaxMPH,WindSpeedAvgMPH,GustSpeedMaxMPH,PrecipitationSumIn
2013-4-3,42,34,25,35,10,4,84,34,22,29.51,29.29,14,4,23,2.08
2013-4-4,56,42,24,24,17,11,64,37,22,29.57,29.23,15,1,18,0.00
2013-4-5,53,40,30,31,23,14,66,50,34,29.32,29.15,10,2,15,0.06
2013-4-6,49,32,22,21,12,4,73,43,19,29.63,29.32,10,2,16,0.00
2013-4-7,58,45,30,33,21,8,58,38,24,29.57,29.16,22,2,32,0.00
2013-4-8,62,47,39,38,32,29,76,58,33,29.50,29.24,9,1,13,0.00
2013-4-9,59,47,40,45,41,33,100,80,51,29.40,29.12,7,0,10,0.19
2013-4-10,49,43,40,46,41,37,100,93,76,29.37,29.27,6,0,7,0.20
2013-4-11,40,34,30,40,24,16,100,67,46,29.53,29.28,9,2,10,0.00
2013-4-12,33,32,30,33,29,21,100,91,60,29.51,29.12,7,0,9,0.58
2013-4-13,55,40,33,39,36,33,100,85,50,29.24,29.10,9,1,13,0.22
2013-4-14,48,40,33,39,33,28,96,76,52,29.55,29.22,7,0,9,0.04
2013-4-15,64,46,27,36,31,28,100,62,28,29.69,29.55,9,1,13,0.00
2013-4-16,56,52,47,54,41,31,100,68,47,29.58,29.30,13,2,18,0.03
2013-4-17,63,49,38,41,33,28,75,56,33,29.71,29.45,8,1,10,0.00
2013-4-18,66,49,37,42,34,28,79,58,32,29.69,29.27,16,1,23,0.03
2013-4-19,72,61,46,59,53,42,99,75,53,29.28,28.85,12,2,19,0.80
2013-4-20,55,44,33,44,29,16,94,58,32,29.61,29.03,13,2,16,0.01
2013-4-21,55,39,28,29,20,14,67,47,23,30.00,29.61,9,1,11,0.00
2013-4-22,65,44,25,28,20,14,85,44,17,30.04,29.86,10,1,15,0.00
2013-4-23,62,44,28,39,30,18,84,58,36,29.86,29.48,10,1,13,0.00
2013-4-24,77,55,36,54,40,35,100,64,25,29.48,29.00,15,1,15,0.04
2013-4-25,64,51,40,53,32,24,82,50,23,29.63,29.01,11,1,13,0.00
2013-4-26,62,45,36,39,32,24,81,60,36,29.79,29.61,9,0,10,0.01
2013-4-28,79,65,57,37,32,24,43,30,14,29.56,29.48,6,0,9,0.04
2013-4-29,64,58,53,45,39,32,66,50,38,29.55,29.50,10,1,13,0.00
2013-4-30,75,61,51,48,43,39,68,54,33,29.65,29.55,9,1,11,0.00
2013-5-1,85,67,51,48,39,31,68,38,19,29.83,29.63,7,0,10,0.00
2013-5-2,86,68,54,52,42,31,59,40,21,29.83,29.71,7,1,11,0.00
2013-5-3,79,62,46,46,37,29,62,40,20,29.86,29.70,9,0,12,0.00
2013-5-4,79,60,50,50,43,38,74,55,26,29.74,29.67,7,0,10,0.00
2013-9-17,48,47,46,46,44,43,100,92,87,29.68,29.66,0,0,1,0.00
2013-9-18,73,60,44,56,49,44,100,71,39,29.67,29.49,9,0,10,0.00
2013-9-19,78,60,49,59,52,47,100,77,37,29.52,29.42,7,1,11,0.00
2013-9-20,80,63,53,60,55,50,100,77,43,29.46,29.28,9,1,13,0.00
2013-9-21,70,61,58,64,58,54,100,89,66,29.29,28.97,10,2,16,0.61
2013-9-22,66,59,52,61,56,44,100,90,68,29.20,28.96,10,1,11,0.27
2013-9-23,50,48,43,47,42,39,99,81,73,29.41,29.30,7,2,13,0.00
2013-9-24,66,53,46,50,44,38,98,75,50,29.40,29.29,8,2,12,0.00
2013-9-25,67,56,44,58,51,44,100,84,57,29.38,29.29,6,1,11,0.00
2013-9-26,64,52,44,59,49,44,100,91,67,29.51,29.37,7,1,9,0.00
2013-9-27,66,58,50,57,53,50,100,86,59,29.65,29.54,7,1,8,0.00
2013-9-28,76,59,46,63,53,46,100,84,41,29.75,29.60,4,0,6,0.00
2013-9-29,62,54,50,56,53,50,100,97,77,29.60,29.44,6,0,7,0.00
2013-9-30,56,55,54,54,54,53,100,96,89,29.36,29.34,0,0,0,0.00
2013-10-1,77,60,48,62,55,48,100,84,55,29.38,29.26,7,0,8,0.00
2013-10-2,79,64,57,62,56,48,97,75,38,29.30,29.22,10,1,13,0.00
2013-10-3,74,66,50,56,52,44,88,62,45,29.50,29.39,6,1,7,0.00
2013-10-4,58,58,57,54,53,50,86,84,80,29.46,29.45,6,2,7,0.00
2013-10-5,60,56,54,53,50,46,95,82,67,29.49,29.47,3,1,3,0.00
2013-10-6,58,55,53,57,53,48,100,95,78,29.50,29.37,9,1,10,0.20
2013-10-7,74,70,58,67,62,57,100,77,65,29.27,28.93,17,4,19,0.09
2013-10-8,64,53,45,52,42,37,98,67,45,29.72,29.26,8,2,9,0.00
2013-10-9,68,51,37,52,40,32,100,72,28,29.81,29.68,9,0,11,0.00
2013-10-10,63,52,41,53,45,39,100,78,54,29.68,29.54,7,0,7,0.00
2013-10-11,69,55,47,53,48,41,100,78,39,29.55,29.50,6,0,7,0.00
2013-10-12,75,57,46,60,51,46,100,82,45,29.69,29.53,7,0,9,0.00
2013-10-13,70,58,49,53,50,47,100,77,48,29.77,29.66,9,1,14,0.00
2013-10-14,57,53,50,54,52,47,100,94,73,29.67,29.61,10,1,11,0.12
2013-10-15,64,54,48,61,54,48,100,98,77,29.64,29.44,6,0,7,0.00
2013-10-16,64,58,54,57,54,50,100,86,68,29.44,29.16,11,2,14,0.04
2013-10-17,67,58,52,59,53,47,100,86,49,29.21,29.04,9,1,11,0.15
2013-10-18,63,54,49,58,47,35,100,78,47,29.25,28.98,13,2,16,0.45
2013-10-19,60,52,44,49,43,38,100,74,56,29.25,28.99,10,1,12,0.07
2013-10-20,58,50,43,50,39,32,100,67,41,29.33,28.97,16,2,17,0.00
2013-10-21,61,50,41,45,41,37,93,73,50,29.40,29.25,10,2,12,0.00
2013-10-22,53,49,41,49,39,26,100,70,45,29.16,29.05,16,2,16,0.06
2013-10-23,54,44,36,39,34,31,92,70,46,29.11,28.97,8,1,9,0.00
2013-10-24,45,39,33,38,32,23,96,74,60,29.20,29.00,9,1,11,0.00
2013-10-25,45,40,36,35,30,26,84,67,50,29.44,29.20,10,2,13,0.00
2013-10-26,46,40,33,38,33,26,98,77,56,29.44,29.12,11,2,13,0.00
2013-10-27,48,42,36,38,32,29,81,68,55,29.35,29.07,11,2,17,0.00
2013-10-28,45,39,30,41,30,21,92,72,42,29.70,29.32,13,3,15,0.02
2013-10-29,45,32,25,35,26,23,100,77,47,29.79,29.65,6,0,7,0.00
2013-10-30,44,37,29,36,31,23,90,78,64,29.64,29.51,8,1,9,0.00
2013-10-31,57,46,37,57,45,35,100,98,89,29.54,28.96,10,2,16,0.16
2013-11-1,68,60,53,61,52,40,100,80,38,29.00,28.61,15,4,22,0.20
2013-11-2,53,45,34,47,41,35,100,88,69,29.24,28.96,10,2,14,0.09
2013-11-3,37,31,25,35,25,16,100,78,47,29.81,29.24,10,3,14,0.00
2013-11-4,37,28,21,28,20,16,91,72,50,30.01,29.81,10,1,10,0.00
2013-11-5,49,38,27,35,27,16,87,62,47,29.95,29.73,11,2,14,0.00
2013-11-6,58,50,44,45,41,35,81,72,58,29.74,29.21,13,3,21,0.00
2013-11-7,54,46,34,52,41,24,100,84,60,29.22,29.06,14,3,16,0.15
2013-11-8,39,36,32,32,26,23,86,68,56,29.43,29.17,17,3,19,0.00
2013-11-9,41,36,29,35,25,21,90,65,48,29.51,29.24,10,1,13,0.00
2013-11-10,45,39,35,39,36,29,100,88,70,29.24,29.04,13,2,20,0.06
2013-11-11,42,38,31,36,30,26,100,72,57,29.42,29.17,16,3,21,0.00
2013-11-12,31,26,21,29,20,14,97,78,65,29.57,29.24,12,4,15,0.00
2013-11-13,30,24,18,23,17,11,93,73,50,29.65,29.34,11,2,12,0.00
2013-11-14,44,36,28,31,26,21,76,65,53,29.38,29.32,11,2,13,0.00
2013-11-15,51,42,34,24,21,16,57,42,30,29.51,29.38,9,1,12,0.00
2013-11-16,55,46,39,31,26,18,58,45,34,29.63,29.50,9,1,10,0.00
2013-11-17,56,49,41,56,43,29,100,80,58,29.58,29.02,10,1,12,0.06
2013-11-18,60,51,41,57,43,26,100,76,50,29.02,28.74,15,3,16,0.31
2013-11-19,41,32,27,29,21,16,81,63,51,29.70,29.00,23,6,26,0.00
2013-11-20,32,26,22,23,20,18,100,75,60,29.96,29.70,9,2,16,0.00
2013-11-21,39,30,20,28,21,14,100,70,33,29.95,29.67,10,1,13,0.00
2013-11-22,43,38,35,42,36,28,100,93,67,29.66,29.16,7,0,10,0.09
2013-11-23,42,30,20,41,24,14,100,75,49,29.31,29.09,13,4,18,0.00
2013-11-24,20,16,12,16,9,0,86,69,50,29.57,29.20,16,6,22,0.00
2013-11-25,28,18,7,18,8,0,87,64,40,29.71,29.44,12,2,16,0.00
2013-11-26,32,30,27,31,25,16,100,83,57,29.55,29.28,10,2,12,0.00
2013-11-27,35,32,27,35,32,28,100,100,97,29.28,28.73,15,2,15,0.93
2013-11-28,27,20,15,28,14,8,100,76,57,29.74,28.86,17,4,20,0.00
2013-11-29,23,16,10,21,14,11,100,87,66,30.08,29.73,7,0,7,0.00
2013-11-30,26,18,8,18,13,8,100,81,60,30.09,29.61,13,1,17,0.00
2013-12-1,36,30,26,32,27,16,100,87,66,29.62,29.36,10,1,13,0.00
2013-12-2,37,32,28,37,33,28,100,100,97,29.36,29.23,6,0,7,0.02
2013-12-3,40,33,29,38,32,28,100,98,84,29.34,29.24,7,1,8,0.00
2013-12-4,37,31,26,31,27,24,99,85,71,29.48,29.33,7,0,7,0.00
2013-12-5,52,43,29,52,41,28,100,93,83,29.44,29.19,10,2,15,0.00
2013-12-6,50,37,32,50,34,24,100,89,69,29.49,29.24,8,1,12,0.41
2013-12-7,33,28,24,26,20,14,83,68,50,29.80,29.45,13,3,16,0.00
2013-12-8,27,24,21,21,16,14,91,72,58,29.90,29.76,9,1,10,0.00
2013-12-9,35,27,23,35,26,16,100,94,72,29.76,29.15,11,1,16,0.00
2013-12-10,34,27,20,32,18,8,100,67,47,29.27,29.12,14,3,19,0.00
2013-12-11,26,20,15,21,14,8,100,76,54,29.50,29.27,10,1,13,0.00
2013-12-12,16,12,5,14,7,0,95,78,56,29.64,29.28,9,2,13,0.00
2013-12-13,16,11,2,16,8,-6,100,84,58,29.79,29.24,11,2,15,0.00
2013-12-14,8,3,-2,8,3,-6,100,90,65,29.97,29.48,6,0,7,0.00
2013-12-15,21,15,7,21,15,8,100,100,100,29.48,28.91,0,0,0,0.00
2013-12-16,16,8,-4,16,7,0,100,90,50,29.60,29.06,10,1,15,0.00
2013-12-17,13,4,-7,14,6,-6,100,99,83,29.60,29.35,9,0,11,0.00
2013-12-18,24,18,11,23,18,11,100,97,85,29.36,29.28,7,0,9,0.00
2013-12-19,33,28,23,29,25,23,100,87,71,29.44,29.26,10,1,10,0.00
2013-12-20,35,27,20,33,26,21,100,95,84,29.43,29.26,8,1,8,0.00
2013-12-21,40,26,20,39,26,21,100,100,100,29.36,29.15,10,2,11,0.04
2013-12-22,27,24,20,28,24,21,100,100,100,29.34,29.11,9,1,11,0.00
2013-12-23,29,25,22,29,25,23,100,100,100,29.53,29.32,0,0,0,0.00
2013-12-24,22,12,4,23,13,4,100,100,100,29.70,29.52,0,0,0,0.00
2013-12-25,11,4,-4,11,6,0,100,100,99,29.94,29.70,0,0,0,0.00
2013-12-26,24,19,11,24,20,11,100,100,100,30.08,29.51,0,0,0,0.00
2013-12-27,29,24,21,28,23,16,100,97,76,32.73,29.74,5,0,6,0.00